Time;durP1;ratioP1;P1;durP2;ratioP2;P2;SDS_P1;SDS_P2;PMS_P1;PMS_P2;Temp;Humidity;BMP_temperature;BMP_pressure;BME280_temperature;BME280_humidity;BME280_pressure;Samples;Min_cycle;Max_cycle;Signal;HPM_P1;HPM_P2
2024/01/11 00:02:10;;;;;;;27.75;20.73;;;-10.70;99.90;;;;;;6282186;22;20183;-86
2024/01/11 00:04:40;;;;;;;17.13;15.35;;;-10.80;99.90;;;;;;6281233;22;20183;-87
2024/01/11 00:07:11;;;;;;;22.90;14.60;;;-10.90;99.90;;;;;;6285968;22;20213;-85
2024/01/11 00:09:43;;;;;;;47.35;17.65;;;-10.80;99.90;;;;;;6281797;22;20174;-83
2024/01/11 00:12:11;;;;;;;30.85;17.55;;;-10.90;99.90;;;;;;6281603;22;20202;-84
2024/01/11 00:14:38;;;;;;;15.93;14.30;;;-10.90;99.90;;;;;;6281469;22;20179;-85
2024/01/11 00:17:08;;;;;;;22.38;20.38;;;-10.90;99.90;;;;;;6284606;22;20182;-87
2024/01/11 00:19:36;;;;;;;27.10;19.45;;;-10.80;99.90;;;;;;6285163;22;20230;-86
2024/01/11 00:22:03;;;;;;;18.45;16.73;;;-10.80;99.90;;;;;;6257281;22;20183;-85
2024/01/11 00:24:30;;;;;;;19.25;17.15;;;-10.80;99.90;;;;;;6282061;22;20190;-85
2024/01/11 00:27:07;;;;;;;20.00;18.40;;;-10.70;99.90;;;;;;6285116;22;20202;-88
2024/01/11 00:29:36;;;;;;;29.73;14.35;;;-10.60;99.90;;;;;;6284493;22;20206;-86
2024/01/11 00:32:09;;;;;;;16.65;14.73;;;-10.70;99.90;;;;;;6295928;22;20167;-89
2024/01/11 00:43:25;;;;;;;22.90;20.90;;;-10.60;99.90;;;;;;6289110;22;20432;-90
2024/01/11 00:45:57;;;;;;;12.30;11.10;;;-10.70;99.90;;;;;;6291349;22;20182;-91
2024/01/11 00:48:38;;;;;;;15.73;14.02;;;-10.80;99.90;;;;;;6288605;22;20206;-87
2024/01/11 00:51:05;;;;;;;32.05;21.60;;;-10.80;99.90;;;;;;6283058;22;20266;-87
2024/01/11 00:53:33;;;;;;;23.50;21.80;;;-10.60;99.90;;;;;;6284813;22;20175;-86
2024/01/11 00:56:04;;;;;;;15.82;14.77;;;-10.70;99.90;;;;;;6288555;22;20537;-86
2024/01/11 00:58:35;;;;;;;15.65;13.70;;;-10.70;99.90;;;;;;6285720;22;20182;-87
2024/01/11 01:01:13;;;;;;;15.27;13.73;;;-10.80;99.90;;;;;;6302860;22;20193;-87
2024/01/11 01:03:42;;;;;;;31.27;15.70;;;-10.90;99.90;;;;;;6303375;22;20158;-89
2024/01/11 01:06:10;;;;;;;16.30;15.02;;;-10.80;99.90;;;;;;6273771;22;20175;-89
2024/01/11 01:08:40;;;;;;;18.95;17.08;;;-10.80;99.90;;;;;;6287177;22;20194;-88
2024/01/11 01:11:09;;;;;;;20.38;18.60;;;-10.80;99.90;;;;;;6261700;22;20171;-87
2024/01/11 01:13:39;;;;;;;24.63;17.80;;;-10.80;99.90;;;;;;6256890;22;20182;-87
2024/01/11 01:16:06;;;;;;;20.58;17.30;;;-10.90;99.90;;;;;;6256555;22;20182;-87
2024/01/11 01:18:33;;;;;;;18.80;16.67;;;-10.80;99.90;;;;;;6281797;22;20170;-88
2024/01/11 01:21:01;;;;;;;23.50;21.45;;;-10.70;99.90;;;;;;6281029;22;20181;-88
2024/01/11 01:23:29;;;;;;;15.75;14.45;;;-10.70;99.90;;;;;;6284306;22;20210;-85
2024/01/11 01:25:56;;;;;;;22.98;20.90;;;-10.60;99.90;;;;;;6282343;22;20190;-86
2024/01/11 01:28:25;;;;;;;19.55;17.90;;;-10.80;99.90;;;;;;6283394;22;20694;-85
2024/01/11 01:30:53;;;;;;;19.95;15.07;;;-10.80;99.90;;;;;;6283851;22;20250;-86
2024/01/11 01:33:20;;;;;;;25.30;18.83;;;-10.80;99.90;;;;;;6296860;22;20162;-85
2024/01/11 01:35:48;;;;;;;9.32;7.65;;;-10.60;99.90;;;;;;6305495;22;20219;-88
2024/01/11 01:38:17;;;;;;;14.50;13.32;;;-10.50;99.90;;;;;;6293771;22;20166;-84
2024/01/11 01:40:46;;;;;;;11.70;9.38;;;-10.70;99.90;;;;;;6286016;22;20355;-90
2024/01/11 01:43:14;;;;;;;11.95;11.13;;;-10.60;99.90;;;;;;6286488;22;20177;-87
2024/01/11 01:45:45;;;;;;;14.02;12.65;;;-10.70;99.90;;;;;;6260442;22;20250;-88
2024/01/11 01:48:12;;;;;;;19.85;18.58;;;-10.80;99.90;;;;;;6285659;22;20218;-88
2024/01/11 01:50:45;;;;;;;14.48;13.27;;;-10.80;99.90;;;;;;6285690;22;20186;-90
2024/01/11 01:53:13;;;;;;;29.45;17.40;;;-10.90;99.90;;;;;;6284794;22;20190;-89
2024/01/11 01:55:54;;;;;;;21.25;17.25;;;-10.80;99.90;;;;;;6286413;22;20190;-88
2024/01/11 01:58:22;;;;;;;17.05;15.30;;;-10.80;99.90;;;;;;6258067;22;20182;-87
2024/01/11 02:00:51;;;;;;;35.67;16.63;;;-10.90;99.90;;;;;;6283331;22;20383;-86
2024/01/11 02:03:20;;;;;;;27.15;20.42;;;-10.60;99.90;;;;;;6284936;22;20186;-91
2024/01/11 02:05:47;;;;;;;14.68;13.20;;;-10.50;99.90;;;;;;6284704;22;20566;-90
2024/01/11 02:08:19;;;;;;;19.05;17.45;;;-10.60;99.90;;;;;;6283904;22;20610;-88
2024/01/11 02:10:49;;;;;;;7.07;6.30;;;-10.40;99.90;;;;;;6286664;22;20197;-89
2024/01/11 02:13:16;;;;;;;10.25;9.60;;;-10.40;99.90;;;;;;6261368;22;20467;-86
2024/01/11 02:15:47;;;;;;;23.23;21.10;;;-10.20;99.90;;;;;;6290884;22;20175;-87
2024/01/11 02:18:15;;;;;;;12.07;10.15;;;-10.20;99.90;;;;;;6259715;22;20214;-87
2024/01/11 02:31:30;;;;;;;24.90;14.75;;;-10.60;99.90;;;;;;6255701;23;20187;-87
2024/01/11 02:34:01;;;;;;;11.43;10.73;;;-10.70;99.90;;;;;;6228699;23;20160;-88
2024/01/11 02:36:30;;;;;;;11.88;9.23;;;-10.70;99.90;;;;;;6227758;23;20243;-86
2024/01/11 02:38:57;;;;;;;15.63;14.20;;;-10.60;99.90;;;;;;6232154;23;20360;-87
2024/01/11 02:41:25;;;;;;;13.60;12.38;;;-10.50;99.90;;;;;;6230588;23;20182;-87
2024/01/11 02:44:01;;;;;;;15.77;13.90;;;-10.60;99.90;;;;;;6207314;23;20185;-83
2024/01/11 02:46:28;;;;;;;12.48;11.35;;;-10.50;99.90;;;;;;6226934;23;20176;-84
2024/01/11 02:48:58;;;;;;;14.07;12.57;;;-10.40;99.90;;;;;;6253070;23;20195;-83
2024/01/11 02:51:28;;;;;;;10.70;9.77;;;-10.30;99.90;;;;;;6251969;23;20219;-86
2024/01/11 02:53:57;;;;;;;13.95;12.80;;;-10.40;99.90;;;;;;6227515;23;20499;-85
2024/01/11 02:56:40;;;;;;;27.60;14.48;;;-10.40;99.90;;;;;;6210227;23;20168;-89
2024/01/11 02:59:08;;;;;;;14.50;13.20;;;-10.50;99.90;;;;;;6237209;23;20164;-89
2024/01/11 03:01:37;;;;;;;11.57;10.88;;;-10.50;99.90;;;;;;6244935;22;20164;-90
2024/01/11 03:04:08;;;;;;;10.23;8.88;;;-10.40;99.90;;;;;;6274853;22;20170;-92
2024/01/11 03:06:36;;;;;;;21.75;14.23;;;-10.30;99.90;;;;;;6248969;22;20210;-88
2024/01/11 03:09:03;;;;;;;14.73;13.65;;;-10.40;99.90;;;;;;6248763;22;20203;-87
2024/01/11 03:16:11;;;;;;;12.30;11.27;;;-10.40;99.90;;;;;;6274907;22;20214;-87
2024/01/11 03:18:42;;;;;;;10.55;9.85;;;-10.50;99.90;;;;;;6239429;23;20248;-89
2024/01/11 03:21:16;;;;;;;9.80;9.10;;;-10.50;99.90;;;;;;6246675;23;20166;-85
2024/01/11 03:23:45;;;;;;;24.23;18.05;;;-10.40;99.90;;;;;;6248148;22;20211;-86
2024/01/11 03:26:19;;;;;;;9.70;9.07;;;-10.30;99.90;;;;;;6263356;22;20164;-86
2024/01/11 03:28:47;;;;;;;13.38;12.25;;;-10.30;99.90;;;;;;6261858;23;20188;-89
2024/01/11 03:31:18;;;;;;;13.88;13.05;;;-10.10;99.90;;;;;;6242303;23;20183;-85
2024/01/11 03:33:49;;;;;;;15.57;14.32;;;-10.20;99.90;;;;;;6186669;23;20186;-86
2024/01/11 03:36:24;;;;;;;38.70;20.60;;;-10.20;99.90;;;;;;6227843;23;20176;-84
2024/01/11 03:38:52;;;;;;;10.30;7.72;;;-10.30;99.90;;;;;;6227212;23;20182;-86
2024/01/11 03:41:19;;;;;;;12.13;11.05;;;-10.30;99.90;;;;;;6227525;23;20171;-86
2024/01/11 03:43:46;;;;;;;14.63;13.43;;;-10.20;99.90;;;;;;6253323;23;20190;-86
2024/01/11 03:46:15;;;;;;;13.23;12.20;;;-10.20;99.90;;;;;;6226152;23;20740;-84
2024/01/11 03:48:42;;;;;;;18.38;10.95;;;-10.00;99.90;;;;;;6226043;23;20237;-86
2024/01/11 03:51:09;;;;;;;14.50;13.23;;;-10.00;99.90;;;;;;6252760;23;20198;-85
2024/01/11 03:53:37;;;;;;;22.35;18.00;;;-10.20;99.90;;;;;;6252138;23;20188;-86
2024/01/11 03:56:05;;;;;;;16.17;13.35;;;-10.00;99.90;;;;;;6251699;23;20239;-85
2024/01/11 03:58:36;;;;;;;11.98;10.70;;;-9.90;99.90;;;;;;6232281;23;20182;-85
2024/01/11 04:01:16;;;;;;;17.38;15.93;;;-9.80;99.90;;;;;;6228762;23;20172;-85
2024/01/11 04:03:49;;;;;;;11.23;10.50;;;-9.80;99.90;;;;;;6252463;23;20444;-85
2024/01/11 04:06:23;;;;;;;16.60;15.30;;;-9.80;99.90;;;;;;6232147;23;20214;-89
2024/01/11 04:08:54;;;;;;;25.83;15.07;;;-9.70;99.90;;;;;;6238614;23;20203;-91
2024/01/11 04:11:30;;;;;;;9.00;8.27;;;-9.70;99.90;;;;;;6260819;23;20253;-88
2024/01/11 04:14:02;;;;;;;21.00;15.00;;;-9.90;99.90;;;;;;6236914;23;20433;-88
2024/01/11 04:16:32;;;;;;;12.80;11.85;;;-10.00;99.90;;;;;;6214254;23;20197;-88
2024/01/11 04:19:04;;;;;;;14.40;13.20;;;-10.10;99.90;;;;;;6229990;23;20373;-86
2024/01/11 04:21:33;;;;;;;20.00;13.07;;;-10.20;99.90;;;;;;6227401;23;20175;-85
2024/01/11 04:24:08;;;;;;;13.77;12.68;;;-10.10;99.90;;;;;;6253575;23;20210;-85
2024/01/11 04:26:37;;;;;;;11.45;10.48;;;-10.10;99.90;;;;;;6262260;23;20175;-91
2024/01/11 04:29:10;;;;;;;12.43;9.27;;;-9.90;99.90;;;;;;6237252;23;20264;-90
2024/01/11 04:36:15;;;;;;;12.00;11.32;;;-9.90;99.90;;;;;;6110093;23;20178;-89
2024/01/11 04:50:20;;;;;;;15.15;14.05;;;-9.10;99.90;;;;;;6140742;23;20266;-86
2024/01/11 04:52:52;;;;;;;17.90;9.95;;;-9.40;99.90;;;;;;6136828;23;20239;-88
2024/01/11 04:55:19;;;;;;;9.43;8.48;;;-9.50;99.90;;;;;;6160004;23;20734;-87
2024/01/11 04:57:46;;;;;;;15.73;14.60;;;-9.50;99.90;;;;;;6137079;23;20185;-88
2024/01/11 05:00:15;;;;;;;7.35;6.90;;;-9.20;99.90;;;;;;6159891;23;20221;-87
2024/01/11 05:02:44;;;;;;;15.75;10.52;;;-9.00;99.90;;;;;;6160669;23;20185;-87
2024/01/11 05:05:13;;;;;;;9.05;7.88;;;-9.00;99.90;;;;;;6136274;23;20260;-86
2024/01/11 05:07:49;;;;;;;13.90;12.63;;;-9.00;99.90;;;;;;6159959;23;20192;-87
2024/01/11 05:10:24;;;;;;;21.88;17.58;;;-8.70;99.90;;;;;;6137780;23;20272;-87
2024/01/11 05:12:51;;;;;;;15.48;9.82;;;-8.70;99.90;;;;;;6135440;23;20177;-86
2024/01/11 05:15:18;;;;;;;12.32;11.32;;;-8.60;99.90;;;;;;6158551;23;20244;-84
2024/01/11 05:17:45;;;;;;;11.10;9.57;;;-8.70;99.90;;;;;;6158098;23;20240;-86
2024/01/11 05:20:13;;;;;;;35.05;14.50;;;-8.70;99.90;;;;;;6160204;23;20175;-86
2024/01/11 05:22:50;;;;;;;22.10;14.52;;;-8.70;99.90;;;;;;6164795;23;20184;-87
2024/01/11 05:25:27;;;;;;;25.17;17.70;;;-8.70;99.90;;;;;;6145378;23;20227;-88
2024/01/11 05:41:19;;;;;;;15.52;13.95;;;-8.60;99.90;;;;;;6241296;22;20258;-89
2024/01/11 05:57:02;;;;;;;6.90;6.55;;;-7.60;99.90;;;;;;6246981;22;20293;-91
2024/01/11 05:59:32;;;;;;;8.20;7.60;;;-7.30;99.90;;;;;;6219121;22;20207;-88
2024/01/11 06:02:01;;;;;;;12.43;6.70;;;-7.20;99.90;;;;;;6298369;22;20194;-91
2024/01/11 06:04:34;;;;;;;8.60;7.85;;;-7.10;99.90;;;;;;6319493;22;20170;-89
2024/01/11 06:07:10;;;;;;;14.98;10.13;;;-7.20;99.90;;;;;;6301269;22;20221;-91
2024/01/11 06:09:39;;;;;;;5.18;4.88;;;-7.50;99.90;;;;;;6302700;22;20205;-82
2024/01/11 06:12:07;;;;;;;36.97;17.83;;;-7.60;99.90;;;;;;6307752;22;20261;-90
2024/01/11 06:14:35;;;;;;;12.52;11.25;;;-7.50;99.90;;;;;;6276154;22;20189;-90
2024/01/11 06:17:03;;;;;;;17.05;13.25;;;-7.40;99.90;;;;;;6215811;23;20164;-90
2024/01/11 06:19:31;;;;;;;7.38;6.93;;;-7.50;99.90;;;;;;6216316;23;20195;-90
2024/01/11 06:21:59;;;;;;;13.73;9.43;;;-7.40;99.90;;;;;;6250599;22;20296;-80
2024/01/11 06:24:26;;;;;;;13.15;11.75;;;-7.30;99.90;;;;;;6304147;22;20179;-88
2024/01/11 06:26:53;;;;;;;14.82;13.70;;;-7.10;99.90;;;;;;6304833;22;20179;-89
2024/01/11 06:29:20;;;;;;;12.05;10.90;;;-7.30;99.90;;;;;;6303104;22;20191;-89
2024/01/11 06:31:47;;;;;;;12.07;9.32;;;-7.20;99.90;;;;;;6277650;22;20163;-89
2024/01/11 06:34:14;;;;;;;9.07;8.23;;;-7.10;99.90;;;;;;6300013;22;20201;-88
2024/01/11 06:36:42;;;;;;;9.05;7.50;;;-7.20;99.90;;;;;;6292995;22;20178;-88
2024/01/11 06:39:12;;;;;;;16.45;9.65;;;-7.00;99.90;;;;;;6264422;22;20178;-88
2024/01/11 06:41:39;;;;;;;11.70;10.63;;;-6.90;99.90;;;;;;6291702;22;20274;-87
2024/01/11 06:44:06;;;;;;;13.38;10.02;;;-6.90;99.90;;;;;;6288025;22;20172;-90
2024/01/11 06:46:35;;;;;;;14.77;13.32;;;-6.90;99.90;;;;;;6291725;22;20475;-90
2024/01/11 06:49:03;;;;;;;14.05;10.77;;;-6.90;99.90;;;;;;6291180;22;20236;-88
2024/01/11 06:51:30;;;;;;;27.48;15.35;;;-6.90;99.90;;;;;;6289429;22;20180;-87
2024/01/11 06:54:00;;;;;;;15.15;8.90;;;-6.90;99.90;;;;;;6263851;22;20168;-87
2024/01/11 06:56:28;;;;;;;11.73;10.43;;;-6.80;99.90;;;;;;6288064;22;20485;-87
2024/01/11 06:58:55;;;;;;;10.82;10.00;;;-6.80;99.90;;;;;;6288350;22;20179;-85
2024/01/11 07:01:23;;;;;;;11.77;10.38;;;-6.70;99.90;;;;;;6289691;22;20177;-88
2024/01/11 07:03:50;;;;;;;10.00;9.27;;;-6.60;99.90;;;;;;6295271;22;20171;-89
2024/01/11 07:06:18;;;;;;;19.30;12.30;;;-6.40;99.90;;;;;;6295230;22;20167;-91
2024/01/11 07:08:45;;;;;;;4.32;4.03;;;-6.50;99.90;;;;;;6215723;22;20198;-88
2024/01/11 07:11:12;;;;;;;16.23;9.57;;;-6.60;99.90;;;;;;6264059;23;20199;-87
2024/01/11 07:13:39;;;;;;;11.98;10.60;;;-6.20;99.90;;;;;;6239893;23;20210;-90
2024/01/11 07:16:06;;;;;;;11.77;7.43;;;-6.10;99.90;;;;;;6237910;23;20226;-90
2024/01/11 07:18:35;;;;;;;4.82;4.53;;;-5.90;99.90;;;;;;6236009;23;20194;-87
2024/01/11 07:29:14;;;;;;;7.45;6.03;;;-5.20;99.90;;;;;;6280561;22;20262;-91
2024/01/11 07:31:48;;;;;;;5.88;5.05;;;-4.40;99.90;;;;;;6295865;22;20182;-90
2024/01/11 07:34:17;;;;;;;5.40;4.90;;;-4.60;99.90;;;;;;6297426;22;20175;-88
2024/01/11 07:36:44;;;;;;;16.75;8.40;;;-5.30;99.90;;;;;;6272810;22;20192;-88
2024/01/11 07:39:11;;;;;;;15.70;7.85;;;-5.20;99.90;;;;;;6298948;22;20185;-87
2024/01/11 07:41:40;;;;;;;13.35;6.82;;;-5.20;99.90;;;;;;6339181;22;20174;-87
2024/01/11 07:44:07;;;;;;;11.40;7.30;;;-5.30;99.90;;;;;;6366201;22;20162;-88
2024/01/11 07:46:34;;;;;;;13.80;7.70;;;-5.40;99.90;;;;;;6339735;22;20186;-89
2024/01/11 07:49:12;;;;;;;5.38;4.82;;;-4.90;99.90;;;;;;6312563;22;20172;-89
2024/01/11 07:51:39;;;;;;;14.98;9.60;;;-4.90;99.90;;;;;;6284477;22;20203;-87
2024/01/11 07:54:06;;;;;;;4.15;3.65;;;-4.80;99.90;;;;;;6270333;23;20193;-88
2024/01/11 07:56:34;;;;;;;8.85;7.55;;;-4.80;99.90;;;;;;6272901;22;20191;-88
2024/01/11 07:59:02;;;;;;;9.23;8.48;;;-4.80;99.90;;;;;;6269880;22;20171;-90
2024/01/11 08:01:35;;;;;;;14.43;12.88;;;-4.70;99.90;;;;;;6267036;22;20210;-89
2024/01/11 08:04:02;;;;;;;8.27;7.57;;;-4.50;99.90;;;;;;6260702;23;20179;-87
2024/01/11 08:06:32;;;;;;;8.05;6.57;;;-4.70;99.90;;;;;;6265594;23;20175;-89
2024/01/11 08:11:43;;;;;;;6.60;5.60;;;-4.50;99.90;;;;;;6321226;22;20235;-87
2024/01/11 08:14:20;;;;;;;6.57;6.07;;;-4.20;99.90;;;;;;6308931;22;20174;-88
2024/01/11 08:17:09;;;;;;;8.93;7.57;;;-4.10;99.90;;;;;;6305794;22;20174;-88
2024/01/11 08:19:46;;;;;;;5.72;5.18;;;-3.90;99.90;;;;;;6305555;22;20210;-88
2024/01/11 08:22:15;;;;;;;5.25;4.85;;;-3.80;99.90;;;;;;6317716;22;20201;-89
2024/01/11 08:24:43;;;;;;;11.38;10.27;;;-3.70;99.90;;;;;;6332903;22;20158;-89
2024/01/11 08:27:10;;;;;;;5.47;4.97;;;-3.80;99.90;;;;;;6286922;22;20199;-88
2024/01/11 08:29:37;;;;;;;2.17;2.08;;;-3.60;99.90;;;;;;6268736;22;20210;-88
2024/01/11 08:32:05;;;;;;;7.22;6.65;;;-3.50;99.90;;;;;;6266786;22;20211;-87
2024/01/11 08:34:49;;;;;;;3.88;3.58;;;-3.40;99.90;;;;;;6263227;22;20172;-89
2024/01/11 08:37:17;;;;;;;5.45;5.13;;;-3.40;99.90;;;;;;6261915;23;20198;-88
2024/01/11 08:39:46;;;;;;;11.48;6.10;;;-3.30;99.90;;;;;;6260163;23;20210;-88
2024/01/11 08:42:15;;;;;;;29.92;5.35;;;-3.30;99.90;;;;;;6259348;23;20195;-88
2024/01/11 08:44:42;;;;;;;5.80;5.35;;;-3.20;99.90;;;;;;6260639;22;20368;-87
2024/01/11 08:47:10;;;;;;;2.72;2.63;;;-3.30;99.90;;;;;;6258489;23;20187;-88
2024/01/11 08:49:39;;;;;;;4.15;3.85;;;-3.20;99.90;;;;;;6259237;23;20234;-90
2024/01/11 08:52:07;;;;;;;10.40;5.45;;;-3.10;99.90;;;;;;6258433;23;20183;-83
2024/01/11 08:54:34;;;;;;;4.05;3.42;;;-3.00;99.90;;;;;;6259658;23;20175;-86
2024/01/11 08:57:03;;;;;;;2.67;2.58;;;-3.10;99.90;;;;;;6262507;22;20346;-89
2024/01/11 08:59:30;;;;;;;5.80;5.25;;;-2.90;99.90;;;;;;6266729;22;20179;-88
2024/01/11 09:01:58;;;;;;;2.65;2.42;;;-3.00;99.90;;;;;;6272970;22;20164;-87
2024/01/11 09:04:40;;;;;;;4.20;3.90;;;-2.90;99.90;;;;;;6243846;22;20213;-87
2024/01/11 09:07:08;;;;;;;4.93;4.55;;;-2.90;99.90;;;;;;6292273;22;20482;-88
2024/01/11 09:09:34;;;;;;;5.45;4.97;;;-2.80;99.90;;;;;;6288350;22;20206;-87
2024/01/11 09:12:13;;;;;;;4.53;3.25;;;-2.80;99.90;;;;;;6288229;22;20189;-86
2024/01/11 09:14:42;;;;;;;3.92;3.67;;;-2.60;99.90;;;;;;6292038;22;20179;-89
2024/01/11 09:17:12;;;;;;;6.13;5.78;;;-2.60;99.90;;;;;;6287653;22;20167;-87
2024/01/11 09:19:39;;;;;;;5.28;4.15;;;-2.60;99.90;;;;;;6291252;22;20487;-88
2024/01/11 09:22:10;;;;;;;3.45;3.35;;;-2.60;99.90;;;;;;6289181;22;20205;-87
2024/01/11 09:24:37;;;;;;;5.35;4.72;;;-2.40;99.90;;;;;;6290419;22;20455;-89
2024/01/11 09:27:06;;;;;;;3.85;3.13;;;-2.30;99.90;;;;;;6291558;22;20182;-88
2024/01/11 09:29:33;;;;;;;4.68;3.50;;;-2.30;99.90;;;;;;6295558;22;20193;-83
2024/01/11 09:32:01;;;;;;;2.28;2.17;;;-2.20;99.90;;;;;;6265474;22;20229;-87
2024/01/11 09:34:28;;;;;;;4.70;4.30;;;-2.20;99.90;;;;;;6271687;22;20498;-88
2024/01/11 09:36:58;;;;;;;1.92;1.83;;;-2.20;99.90;;;;;;6297079;22;20193;-85
2024/01/11 09:39:26;;;;;;;5.63;4.28;;;-2.20;99.90;;;;;;6322551;22;20167;-88
2024/01/11 09:42:04;;;;;;;2.30;2.22;;;-2.20;99.90;;;;;;6321791;22;20174;-86
2024/01/11 09:44:33;;;;;;;8.15;7.47;;;-2.20;99.90;;;;;;6324153;22;20162;-84
2024/01/11 09:47:02;;;;;;;2.38;2.28;;;-2.20;99.90;;;;;;6295284;22;20188;-88
2024/01/11 09:49:31;;;;;;;3.42;3.22;;;-2.20;99.90;;;;;;6298628;22;20183;-89
2024/01/11 09:52:01;;;;;;;2.30;2.20;;;-2.20;99.90;;;;;;6298183;22;20222;-90
2024/01/11 09:54:28;;;;;;;3.15;3.05;;;-2.20;99.90;;;;;;6279441;22;20225;-88
2024/01/11 09:56:59;;;;;;;4.95;4.53;;;-2.20;99.90;;;;;;6329979;22;20185;-87
2024/01/11 09:59:26;;;;;;;4.70;4.30;;;-2.10;99.90;;;;;;6290494;22;20255;-89
2024/01/11 10:01:53;;;;;;;2.95;2.75;;;-2.10;99.90;;;;;;6301201;22;20185;-86
2024/01/11 10:04:21;;;;;;;3.22;3.03;;;-2.00;99.90;;;;;;6301483;22;20166;-84
2024/01/11 10:06:50;;;;;;;6.78;6.18;;;-2.00;99.90;;;;;;6299101;22;20193;-89
2024/01/11 10:09:18;;;;;;;1.13;1.13;;;-2.00;99.90;;;;;;6300040;22;20274;-85
2024/01/11 10:11:45;;;;;;;3.10;2.78;;;-1.90;99.90;;;;;;6298392;22;20198;-90
2024/01/11 10:14:13;;;;;;;2.45;2.03;;;-1.90;99.90;;;;;;6296347;22;20173;-89
2024/01/11 10:16:43;;;;;;;5.55;4.32;;;-1.90;99.90;;;;;;6308657;22;20166;-86
2024/01/11 10:19:13;;;;;;;2.90;2.80;;;-1.90;99.90;;;;;;6291808;22;20224;-82
2024/01/11 10:21:40;;;;;;;6.43;4.55;;;-1.90;99.90;;;;;;6296429;22;20170;-84
2024/01/11 10:24:08;;;;;;;3.63;3.40;;;-1.90;99.90;;;;;;6293769;22;20182;-83
2024/01/11 10:26:35;;;;;;;1.95;1.85;;;-1.90;99.90;;;;;;6296369;22;20196;-83
2024/01/11 10:29:05;;;;;;;5.70;5.25;;;-1.90;99.90;;;;;;6324345;22;20193;-86
2024/01/11 10:31:34;;;;;;;5.30;4.63;;;-1.90;99.90;;;;;;6286817;22;20222;-85
2024/01/11 10:36:48;;;;;;;2.05;1.95;;;-1.80;99.90;;;;;;6239715;22;20161;-87
2024/01/11 10:42:07;;;;;;;3.25;2.95;;;-1.80;99.90;;;;;;6271851;22;20272;-86
2024/01/11 10:44:35;;;;;;;3.90;3.60;;;-1.70;99.90;;;;;;6308343;22;20226;-87
2024/01/11 10:47:07;;;;;;;19.00;3.67;;;-1.70;99.90;;;;;;6304824;22;20197;-80
2024/01/11 10:49:39;;;;;;;2.75;2.55;;;-1.80;99.90;;;;;;6303991;22;20220;-81
2024/01/11 10:52:07;;;;;;;2.10;2.00;;;-1.70;99.90;;;;;;6331349;22;20162;-88
2024/01/11 10:54:36;;;;;;;2.85;2.63;;;-1.60;99.90;;;;;;6329450;22;20178;-85
2024/01/11 10:57:05;;;;;;;2.38;2.28;;;-1.60;99.90;;;;;;6292652;22;20181;-81
2024/01/11 10:59:35;;;;;;;3.55;3.35;;;-1.60;99.90;;;;;;6320178;22;20194;-85
2024/01/11 11:02:07;;;;;;;4.20;3.83;;;-1.60;99.90;;;;;;6322434;22;20194;-82
2024/01/11 11:04:37;;;;;;;5.65;3.83;;;-1.50;99.90;;;;;;6319549;22;20167;-81
2024/01/11 11:07:07;;;;;;;1.75;1.70;;;-1.50;99.90;;;;;;6320961;22;20205;-86
2024/01/11 11:09:35;;;;;;;2.75;2.55;;;-1.50;99.90;;;;;;6294902;22;20188;-86
2024/01/11 11:12:04;;;;;;;2.00;1.90;;;-1.50;99.90;;;;;;6295735;22;20201;-88
2024/01/11 11:14:34;;;;;;;5.97;2.20;;;-1.40;99.90;;;;;;6294185;22;20182;-86
2024/01/11 11:17:01;;;;;;;1.40;1.33;;;-1.50;99.90;;;;;;6307719;22;20197;-87
2024/01/11 11:19:30;;;;;;;2.40;2.30;;;-1.40;99.90;;;;;;6319603;22;20230;-82
2024/01/11 11:21:57;;;;;;;4.60;3.63;;;-1.40;99.90;;;;;;6285151;22;20274;-89
2024/01/11 11:24:23;;;;;;;3.78;3.40;;;-1.40;99.90;;;;;;6321349;22;20189;-88
2024/01/11 11:26:51;;;;;;;1.95;1.85;;;-1.50;99.90;;;;;;6290168;22;20190;-85
2024/01/11 11:29:19;;;;;;;4.47;4.13;;;-1.40;99.90;;;;;;6324190;22;20182;-86
2024/01/11 11:32:04;;;;;;;2.10;2.00;;;-1.30;99.90;;;;;;6320288;22;20221;-87
2024/01/11 11:34:46;;;;;;;5.60;5.10;;;-1.20;99.90;;;;;;6310988;22;20193;-82
2024/01/11 11:37:23;;;;;;;2.78;2.63;;;-1.10;99.90;;;;;;6319368;22;20200;-84
2024/01/11 11:39:50;;;;;;;2.90;2.63;;;-1.30;99.90;;;;;;6320082;22;20154;-80
2024/01/11 11:42:18;;;;;;;0.93;0.93;;;-1.20;99.90;;;;;;6319630;22;20174;-82
2024/01/11 11:44:52;;;;;;;6.72;3.78;;;-1.30;99.90;;;;;;6289633;22;20185;-86
2024/01/11 11:47:23;;;;;;;4.43;3.78;;;-1.30;99.90;;;;;;6293677;22;20220;-86
2024/01/11 11:50:04;;;;;;;3.30;3.10;;;-1.20;99.90;;;;;;6318151;22;20186;-85
2024/01/11 11:52:35;;;;;;;16.67;3.63;;;-1.30;99.90;;;;;;6317879;22;20218;-81
2024/01/11 11:55:04;;;;;;;10.02;4.78;;;-1.20;99.90;;;;;;6290308;22;20170;-86
2024/01/11 11:57:32;;;;;;;1.05;1.05;;;-1.30;99.90;;;;;;6318352;22;20166;-86
2024/01/11 12:00:02;;;;;;;12.32;5.47;;;-1.20;99.90;;;;;;6291438;22;20180;-88
2024/01/11 12:02:30;;;;;;;14.10;5.85;;;-1.20;99.90;;;;;;6289220;22;20189;-84
2024/01/11 12:04:57;;;;;;;4.30;4.05;;;-1.30;99.90;;;;;;6314478;22;20182;-87
2024/01/11 12:07:24;;;;;;;3.70;3.50;;;-1.20;99.90;;;;;;6315177;22;20223;-86
2024/01/11 12:09:52;;;;;;;10.82;5.10;;;-1.20;99.90;;;;;;6319312;22;20493;-86
2024/01/11 12:12:20;;;;;;;4.18;3.95;;;-1.30;99.90;;;;;;6300802;22;20201;-87
2024/01/11 12:14:49;;;;;;;3.33;2.85;;;-1.30;99.90;;;;;;6319602;22;20190;-80
2024/01/11 12:17:16;;;;;;;6.35;5.85;;;-1.30;99.90;;;;;;6321698;22;20220;-86
2024/01/11 12:19:44;;;;;;;3.88;3.10;;;-1.20;99.90;;;;;;6316680;22;20284;-88
2024/01/11 12:22:10;;;;;;;4.97;4.68;;;-1.10;99.90;;;;;;6321284;22;20170;-84
2024/01/11 12:24:41;;;;;;;5.43;4.90;;;-1.20;99.90;;;;;;6321694;22;20185;-89
2024/01/11 12:27:09;;;;;;;4.68;4.38;;;-1.10;99.90;;;;;;6298932;22;20175;-86
2024/01/11 12:29:38;;;;;;;5.22;4.50;;;-1.00;99.90;;;;;;6326563;22;20200;-83
2024/01/11 12:32:18;;;;;;;4.40;4.10;;;-0.90;99.90;;;;;;6323414;22;20481;-86
2024/01/11 12:34:46;;;;;;;3.35;3.13;;;-1.00;99.90;;;;;;6323295;22;20201;-84
2024/01/11 12:37:15;;;;;;;4.25;4.05;;;-1.10;99.90;;;;;;6295486;22;20232;-83
2024/01/11 12:39:42;;;;;;;6.88;6.40;;;-1.10;99.90;;;;;;6324192;22;20174;-88
2024/01/11 12:42:09;;;;;;;4.07;3.72;;;-1.20;99.90;;;;;;6322481;22;20254;-88
2024/01/11 12:44:41;;;;;;;2.95;2.85;;;-1.20;99.90;;;;;;6294695;22;20174;-83
2024/01/11 12:47:09;;;;;;;5.20;4.75;;;-1.30;99.90;;;;;;6323569;22;20201;-84
2024/01/11 12:49:36;;;;;;;5.50;5.10;;;-1.40;99.90;;;;;;6304542;22;20182;-86
2024/01/11 12:52:04;;;;;;;4.00;3.78;;;-1.50;99.90;;;;;;6332601;22;20186;-85
2024/01/11 12:54:33;;;;;;;4.72;4.20;;;-1.50;99.90;;;;;;6333338;22;20200;-85
2024/01/11 12:57:02;;;;;;;6.53;5.72;;;-1.60;99.90;;;;;;6319620;22;20165;-87
2024/01/11 12:59:29;;;;;;;2.35;2.25;;;-1.60;99.90;;;;;;6291796;22;20370;-79
2024/01/11 13:01:59;;;;;;;3.13;2.92;;;-1.70;99.90;;;;;;6290886;22;20249;-85
2024/01/11 13:04:26;;;;;;;2.75;2.50;;;-1.70;99.90;;;;;;6317208;22;20185;-85
2024/01/11 13:06:53;;;;;;;5.47;4.93;;;-1.80;99.90;;;;;;6322761;22;20193;-88
2024/01/11 13:09:20;;;;;;;2.90;2.80;;;-1.80;99.90;;;;;;6332510;22;20278;-86
2024/01/11 13:11:48;;;;;;;2.03;1.92;;;-1.80;99.90;;;;;;6304285;22;20214;-87
2024/01/11 13:14:20;;;;;;;4.00;3.80;;;-1.80;99.90;;;;;;6295689;22;20155;-84
2024/01/11 13:16:48;;;;;;;2.75;2.65;;;-1.70;99.90;;;;;;6315160;22;20239;-83
2024/01/11 13:19:15;;;;;;;12.50;3.78;;;-1.60;99.90;;;;;;6290775;22;20182;-86
2024/01/11 13:21:53;;;;;;;8.65;4.88;;;-1.50;99.90;;;;;;6291664;22;20164;-82
2024/01/11 13:24:20;;;;;;;4.30;3.97;;;-1.40;99.90;;;;;;6316453;22;20220;-81
2024/01/11 13:26:46;;;;;;;2.67;2.47;;;-1.40;99.90;;;;;;6314735;22;20250;-81
2024/01/11 13:29:14;;;;;;;3.47;3.28;;;-1.40;99.90;;;;;;6316928;22;20293;-88
2024/01/11 13:31:41;;;;;;;2.22;2.13;;;-1.30;99.90;;;;;;6292183;22;20232;-80
2024/01/11 13:34:08;;;;;;;1.63;1.63;;;-1.30;99.90;;;;;;6322784;22;20196;-87
2024/01/11 13:36:35;;;;;;;16.33;5.93;;;-1.30;99.90;;;;;;6323435;22;20162;-87
2024/01/11 13:39:03;;;;;;;7.63;6.53;;;-1.40;99.90;;;;;;6323553;22;20181;-87
2024/01/11 13:41:30;;;;;;;4.72;4.20;;;-1.30;99.90;;;;;;6319341;22;20300;-85
2024/01/11 13:43:57;;;;;;;4.15;3.95;;;-1.40;99.90;;;;;;6301653;22;20246;-82
2024/01/11 13:46:24;;;;;;;7.28;3.38;;;-1.60;99.90;;;;;;6335270;22;20177;-87
2024/01/11 13:51:38;;;;;;;5.90;5.40;;;-1.60;99.90;;;;;;6234509;23;20172;-86
2024/01/11 13:54:21;;;;;;;2.38;2.28;;;-1.60;99.90;;;;;;6208154;23;20192;-88
2024/01/11 13:56:48;;;;;;;7.63;4.88;;;-1.60;99.90;;;;;;6232614;23;20191;-85
2024/01/11 13:59:15;;;;;;;9.48;6.05;;;-1.60;99.90;;;;;;6202398;23;20226;-84
2024/01/11 14:01:42;;;;;;;2.90;2.70;;;-1.60;99.90;;;;;;6227548;23;20243;-86
2024/01/11 14:04:09;;;;;;;3.15;2.95;;;-1.70;99.90;;;;;;6229331;23;20176;-86
2024/01/11 14:06:36;;;;;;;10.40;7.63;;;-1.70;99.90;;;;;;6231744;23;20397;-87
2024/01/11 14:09:04;;;;;;;3.15;2.90;;;-1.70;99.90;;;;;;6200713;23;20180;-88
2024/01/11 14:11:31;;;;;;;1.70;1.63;;;-1.80;99.90;;;;;;6204237;23;20215;-87
2024/01/11 14:13:59;;;;;;;3.17;3.08;;;-1.90;99.90;;;;;;6231634;23;20188;-85